Time;durP1;ratioP1;P1;durP2;ratioP2;P2;SDS_P1;SDS_P2;PMS_P1;PMS_P2;Temp;Humidity;BMP_temperature;BMP_pressure;BME280_temperature;BME280_humidity;BME280_pressure;Samples;Min_cycle;Max_cycle;Signal;HPM_P1;HPM_P2
2021/11/29 00:01:26;;;;;;;1.30;0.60;;;3.10;99.90;;;;;;5005526;28;20082;-81
2021/11/29 00:03:52;;;;;;;3.83;0.20;;;3.00;99.90;;;;;;5008236;28;20022;-80
2021/11/29 00:06:18;;;;;;;3.30;0.20;;;3.00;99.90;;;;;;5013346;28;20034;-80
2021/11/29 00:08:50;;;;;;;5.35;0.30;;;3.00;99.90;;;;;;5018223;28;20060;-81
2021/11/29 00:11:15;;;;;;;3.53;0.30;;;3.00;99.90;;;;;;5001990;28;20054;-79
2021/11/29 00:13:41;;;;;;;1.95;0.25;;;2.90;99.90;;;;;;4998842;28;20030;-80
2021/11/29 00:16:08;;;;;;;3.65;0.35;;;2.90;99.90;;;;;;5010144;28;20026;-80
2021/11/29 00:18:34;;;;;;;0.70;0.25;;;2.90;99.90;;;;;;5016047;28;20042;-82
2021/11/29 00:21:00;;;;;;;1.00;0.20;;;3.00;99.90;;;;;;5010094;28;20026;-80
2021/11/29 00:23:26;;;;;;;1.92;0.28;;;3.00;99.90;;;;;;5012012;28;20050;-81
2021/11/29 00:25:52;;;;;;;2.40;0.20;;;3.00;99.90;;;;;;4998764;28;20026;-81
2021/11/29 00:28:18;;;;;;;1.00;0.52;;;2.90;99.90;;;;;;5017658;28;20030;-80
2021/11/29 00:30:44;;;;;;;1.58;0.55;;;2.90;99.90;;;;;;5017160;28;20040;-80
2021/11/29 00:33:11;;;;;;;1.50;0.20;;;2.90;99.90;;;;;;5007837;28;20035;-80
2021/11/29 00:35:37;;;;;;;0.63;0.40;;;2.90;99.90;;;;;;5012919;28;20030;-80
2021/11/29 00:38:04;;;;;;;1.65;0.30;;;2.90;99.90;;;;;;5001860;28;20037;-81
2021/11/29 00:40:30;;;;;;;0.95;0.10;;;2.90;99.90;;;;;;5012845;28;20057;-81
2021/11/29 00:42:56;;;;;;;0.47;0.30;;;2.90;99.90;;;;;;5017093;28;20078;-80
2021/11/29 00:45:22;;;;;;;0.15;0.10;;;2.90;99.90;;;;;;5018045;28;20059;-80
2021/11/29 00:47:47;;;;;;;2.80;0.22;;;2.90;99.90;;;;;;5008208;28;20344;-81
2021/11/29 00:50:14;;;;;;;0.57;0.17;;;2.80;99.90;;;;;;4998228;28;20049;-81
2021/11/29 00:52:41;;;;;;;1.85;0.43;;;2.80;99.90;;;;;;5014627;28;20038;-81
2021/11/29 00:55:08;;;;;;;0.10;0.10;;;2.90;99.90;;;;;;5012362;28;20021;-80
2021/11/29 00:57:34;;;;;;;0.52;0.47;;;2.80;99.90;;;;;;5001038;28;20053;-81
2021/11/29 00:59:59;;;;;;;3.30;0.40;;;2.90;99.90;;;;;;5015029;28;20026;-80
2021/11/29 01:02:25;;;;;;;2.30;0.30;;;2.90;99.90;;;;;;5011432;28;20503;-80
2021/11/29 01:04:51;;;;;;;0.10;0.05;;;2.90;99.90;;;;;;4996783;28;20038;-80
2021/11/29 01:07:16;;;;;;;1.15;0.28;;;2.90;99.90;;;;;;5000789;28;20476;-80
2021/11/29 01:09:42;;;;;;;1.27;0.15;;;2.90;99.90;;;;;;5009978;28;20125;-80
2021/11/29 01:12:08;;;;;;;2.83;0.28;;;2.90;99.90;;;;;;5016969;28;20044;-81
2021/11/29 01:14:36;;;;;;;0.13;0.10;;;3.00;99.90;;;;;;5010704;28;20018;-81
2021/11/29 01:17:02;;;;;;;3.72;0.22;;;2.90;99.90;;;;;;4997077;28;20026;-82
2021/11/29 01:19:27;;;;;;;6.63;0.28;;;3.00;99.90;;;;;;5019437;28;20030;-81
2021/11/29 01:21:53;;;;;;;0.05;0.05;;;2.90;99.90;;;;;;5019267;28;20045;-80
2021/11/29 01:24:19;;;;;;;3.63;0.30;;;2.90;99.90;;;;;;5014490;28;20076;-80
2021/11/29 01:26:45;;;;;;;0.38;0.30;;;2.90;99.90;;;;;;5015124;28;20501;-80
2021/11/29 01:29:10;;;;;;;0.20;0.20;;;2.90;99.90;;;;;;5013318;28;20052;-80
2021/11/29 01:31:36;;;;;;;0.13;0.08;;;2.80;99.90;;;;;;5012280;28;20467;-80
2021/11/29 01:34:02;;;;;;;0.03;0.03;;;2.90;99.90;;;;;;4997538;28;20041;-80
2021/11/29 01:36:27;;;;;;;0.20;0.20;;;2.90;99.90;;;;;;5001178;28;20033;-82
2021/11/29 01:38:53;;;;;;;3.30;0.20;;;2.90;99.90;;;;;;5014284;28;20017;-81
2021/11/29 01:41:19;;;;;;;1.70;0.30;;;2.90;99.90;;;;;;5031546;28;20032;-81
2021/11/29 01:43:45;;;;;;;1.88;0.20;;;2.90;99.90;;;;;;5015350;28;20065;-81
2021/11/29 01:46:11;;;;;;;0.00;0.00;;;3.00;99.90;;;;;;5007637;28;20033;-81
2021/11/29 01:48:36;;;;;;;0.75;0.20;;;3.00;99.90;;;;;;5002968;28;20048;-80
2021/11/29 01:51:03;;;;;;;2.08;0.20;;;3.00;99.90;;;;;;5015644;28;20030;-80
2021/11/29 01:53:30;;;;;;;0.77;0.32;;;3.00;99.90;;;;;;5014139;28;20424;-80
2021/11/29 01:56:00;;;;;;;2.08;0.30;;;2.90;99.90;;;;;;5011507;28;20019;-79
2021/11/29 01:58:27;;;;;;;0.20;0.20;;;2.90;99.90;;;;;;5007314;28;20035;-81
2021/11/29 02:00:55;;;;;;;1.17;0.40;;;2.90;99.90;;;;;;4997269;28;20048;-79
2021/11/29 02:03:23;;;;;;;4.18;0.52;;;2.80;99.90;;;;;;5004950;28;20328;-79
2021/11/29 02:05:51;;;;;;;1.00;1.00;;;2.80;99.90;;;;;;5013617;28;20407;-79
2021/11/29 02:08:16;;;;;;;0.70;0.70;;;2.70;99.90;;;;;;5012714;28;20068;-81
2021/11/29 02:10:42;;;;;;;0.70;0.70;;;2.60;99.90;;;;;;5012823;28;20133;-80
2021/11/29 02:13:10;;;;;;;1.00;1.00;;;2.60;99.90;;;;;;5014586;28;20509;-80
2021/11/29 02:15:37;;;;;;;6.15;1.15;;;2.50;99.90;;;;;;5031361;28;20092;-80
2021/11/29 02:18:04;;;;;;;1.05;0.80;;;2.40;99.90;;;;;;5013374;28;20089;-81
2021/11/29 02:20:31;;;;;;;1.13;0.70;;;2.50;99.90;;;;;;5007904;28;20109;-81
2021/11/29 02:23:02;;;;;;;0.82;0.75;;;2.40;99.90;;;;;;5006431;28;20034;-80
2021/11/29 02:25:27;;;;;;;2.97;1.23;;;2.40;99.90;;;;;;4996754;28;20476;-80
2021/11/29 02:27:53;;;;;;;1.13;0.70;;;2.40;99.90;;;;;;5004508;28;20022;-80
2021/11/29 02:30:23;;;;;;;0.47;0.47;;;2.50;99.90;;;;;;5011038;28;20394;-80
2021/11/29 02:32:50;;;;;;;6.82;1.77;;;2.50;99.90;;;;;;5003882;28;20029;-80
2021/11/29 02:35:16;;;;;;;0.30;0.30;;;2.40;99.90;;;;;;5013999;28;20090;-79
2021/11/29 02:37:41;;;;;;;0.95;0.68;;;2.40;99.90;;;;;;5021443;28;20404;-80
2021/11/29 02:40:07;;;;;;;2.92;0.60;;;2.50;99.90;;;;;;4996745;28;20045;-80
2021/11/29 02:42:33;;;;;;;0.55;0.55;;;2.50;99.90;;;;;;5011445;28;20474;-80
2021/11/29 02:44:59;;;;;;;0.38;0.38;;;2.50;99.90;;;;;;5012173;28;20086;-80
2021/11/29 02:47:25;;;;;;;0.40;0.40;;;2.50;99.90;;;;;;5015079;28;20038;-80
2021/11/29 02:49:51;;;;;;;1.27;0.75;;;2.50;99.90;;;;;;5010549;28;20054;-79
2021/11/29 02:52:18;;;;;;;0.77;0.65;;;2.60;99.90;;;;;;5023628;28;20479;-80
2021/11/29 02:54:45;;;;;;;1.50;0.60;;;2.60;99.90;;;;;;5002912;28;20022;-81
2021/11/29 02:57:14;;;;;;;1.70;0.75;;;2.60;99.90;;;;;;5024741;28;20064;-79
2021/11/29 02:59:41;;;;;;;1.60;0.43;;;2.70;99.90;;;;;;5025038;28;20017;-79
2021/11/29 03:02:11;;;;;;;3.75;0.70;;;2.70;99.90;;;;;;5027120;28;20026;-78
2021/11/29 03:04:38;;;;;;;0.38;0.38;;;2.70;99.90;;;;;;5038762;28;20045;-79
2021/11/29 03:07:05;;;;;;;0.77;0.47;;;2.70;99.90;;;;;;5035580;28;20013;-78
2021/11/29 03:09:33;;;;;;;4.93;0.45;;;2.80;99.90;;;;;;5044145;28;20091;-79
2021/11/29 03:11:59;;;;;;;1.03;0.60;;;2.80;99.90;;;;;;5031154;28;20398;-81
2021/11/29 03:14:25;;;;;;;0.52;0.30;;;2.80;99.90;;;;;;5008507;28;20491;-80
2021/11/29 03:16:53;;;;;;;2.80;0.68;;;2.90;99.90;;;;;;5017908;28;20034;-79
2021/11/29 03:19:19;;;;;;;;;;;2.80;99.90;;;;;;5021517;28;20022;-79
2021/11/29 03:21:45;;;;;;;0.65;0.25;;;2.90;99.90;;;;;;5013137;28;19932;-80
2021/11/29 03:24:11;;;;;;;1.35;0.30;;;2.90;99.90;;;;;;5033539;28;20046;-80
2021/11/29 03:26:38;;;;;;;0.40;0.40;;;2.90;99.90;;;;;;5024758;28;20014;-78
2021/11/29 03:29:07;;;;;;;2.53;0.47;;;2.90;99.90;;;;;;5037756;28;20045;-80
2021/11/29 03:31:34;;;;;;;2.90;0.20;;;2.90;99.90;;;;;;5024014;28;20025;-79
2021/11/29 03:34:02;;;;;;;0.68;0.30;;;2.90;99.90;;;;;;5019303;28;20047;-78
2021/11/29 03:36:30;;;;;;;2.08;0.10;;;2.90;99.90;;;;;;5022961;28;20056;-80
2021/11/29 03:38:57;;;;;;;1.30;0.32;;;2.90;99.90;;;;;;5030401;28;20042;-79
2021/11/29 03:41:23;;;;;;;3.08;0.40;;;2.90;99.90;;;;;;5019763;28;20027;-78
2021/11/29 03:43:50;;;;;;;0.82;0.45;;;2.90;99.90;;;;;;5017413;28;20102;-80
2021/11/29 03:46:16;;;;;;;3.13;1.08;;;2.90;99.90;;;;;;5008624;28;20026;-80
2021/11/29 03:48:41;;;;;;;5.60;0.80;;;2.90;99.90;;;;;;5042792;28;20046;-80
2021/11/29 03:51:08;;;;;;;2.80;0.82;;;2.90;99.90;;;;;;5005334;28;20046;-80
2021/11/29 03:53:34;;;;;;;1.13;0.98;;;2.90;99.90;;;;;;5016934;28;20022;-80
2021/11/29 03:56:00;;;;;;;2.63;1.02;;;2.90;99.90;;;;;;5008833;28;20026;-80
2021/11/29 03:58:26;;;;;;;4.70;1.02;;;2.90;99.90;;;;;;5008829;28;20034;-80
2021/11/29 04:00:52;;;;;;;0.68;0.65;;;2.90;99.90;;;;;;4998988;28;20487;-80
2021/11/29 04:03:18;;;;;;;1.63;0.70;;;3.00;99.90;;;;;;4995158;28;20038;-79
2021/11/29 04:05:44;;;;;;;5.35;1.10;;;3.00;99.90;;;;;;5011693;28;20025;-82
2021/11/29 04:08:10;;;;;;;4.60;0.70;;;3.10;99.90;;;;;;5009016;28;20030;-80
2021/11/29 04:10:35;;;;;;;1.65;0.75;;;3.00;99.90;;;;;;4995098;28;20045;-80
2021/11/29 04:13:02;;;;;;;1.05;0.70;;;3.10;99.90;;;;;;4994503;28;20031;-81
2021/11/29 04:15:28;;;;;;;3.38;0.80;;;3.20;99.90;;;;;;5005486;28;20029;-80
2021/11/29 04:17:53;;;;;;;5.43;0.80;;;3.20;99.90;;;;;;4995798;28;20352;-81
2021/11/29 04:20:20;;;;;;;4.28;1.08;;;3.10;99.90;;;;;;5013248;28;20038;-80
2021/11/29 04:22:46;;;;;;;1.60;1.27;;;3.20;99.90;;;;;;5013241;28;20044;-81
2021/11/29 04:25:15;;;;;;;5.93;0.77;;;3.20;99.90;;;;;;5013767;28;20479;-81
2021/11/29 04:27:42;;;;;;;6.95;0.63;;;3.20;99.90;;;;;;5000915;28;20505;-81
2021/11/29 04:30:13;;;;;;;0.77;0.35;;;3.20;99.90;;;;;;4999096;28;20030;-80
2021/11/29 04:32:39;;;;;;;5.57;0.93;;;3.20;99.90;;;;;;5009625;28;20479;-81
2021/11/29 04:35:06;;;;;;;2.45;0.93;;;3.20;99.90;;;;;;5004426;28;20360;-81
2021/11/29 04:37:31;;;;;;;3.90;0.47;;;3.30;99.90;;;;;;5003143;28;20026;-80
2021/11/29 04:39:57;;;;;;;2.85;0.70;;;3.30;99.90;;;;;;5023393;28;20041;-81
2021/11/29 04:42:23;;;;;;;1.95;0.40;;;3.40;99.90;;;;;;5028248;28;20034;-80
2021/11/29 04:44:48;;;;;;;1.83;0.40;;;3.50;99.90;;;;;;5013125;28;20033;-80
2021/11/29 04:47:14;;;;;;;5.97;1.17;;;3.50;99.90;;;;;;4998178;28;20054;-79
2021/11/29 04:49:40;;;;;;;1.17;0.80;;;3.60;99.90;;;;;;5008993;28;20133;-80
2021/11/29 04:52:06;;;;;;;1.23;0.52;;;3.60;99.90;;;;;;5021277;28;20038;-79
2021/11/29 04:54:32;;;;;;;13.68;0.98;;;3.60;99.90;;;;;;5007395;28;20066;-79
2021/11/29 04:56:57;;;;;;;3.63;0.57;;;3.60;99.90;;;;;;5017380;28;20091;-80
2021/11/29 04:59:23;;;;;;;3.58;0.40;;;3.50;99.90;;;;;;5027494;28;20042;-80
2021/11/29 05:01:49;;;;;;;5.10;1.90;;;3.60;99.90;;;;;;5031354;28;20441;-81
2021/11/29 05:04:14;;;;;;;0.93;0.60;;;3.60;99.90;;;;;;5018571;28;20473;-81
2021/11/29 05:06:40;;;;;;;2.22;0.70;;;3.60;99.90;;;;;;4998233;28;20042;-80
2021/11/29 05:09:09;;;;;;;2.78;0.75;;;3.50;99.90;;;;;;5022998;28;20479;-81
2021/11/29 05:11:35;;;;;;;5.53;1.02;;;3.50;99.90;;;;;;5032303;28;20117;-80
2021/11/29 05:14:01;;;;;;;0.93;0.40;;;3.40;99.90;;;;;;5014859;28;20061;-79
2021/11/29 05:16:27;;;;;;;3.05;0.50;;;3.50;99.90;;;;;;5030835;28;20390;-80
2021/11/29 05:18:52;;;;;;;0.28;0.22;;;3.40;99.90;;;;;;5018032;28;20046;-80
2021/11/29 05:21:18;;;;;;;3.85;0.30;;;3.40;99.90;;;;;;5003822;28;20037;-80
2021/11/29 05:23:44;;;;;;;4.05;0.20;;;3.40;99.90;;;;;;5015443;28;20494;-80
2021/11/29 05:26:10;;;;;;;2.80;0.88;;;3.30;99.90;;;;;;5005958;28;20105;-80
2021/11/29 05:28:35;;;;;;;2.03;0.30;;;3.30;99.90;;;;;;5029993;28;20486;-80
2021/11/29 05:31:01;;;;;;;2.95;0.60;;;3.30;99.90;;;;;;5014708;28;20033;-80
2021/11/29 05:33:27;;;;;;;1.73;0.35;;;3.30;99.90;;;;;;4997072;28;20475;-79
2021/11/29 05:35:52;;;;;;;3.53;0.50;;;3.30;99.90;;;;;;5011230;28;20034;-79
2021/11/29 05:38:18;;;;;;;3.00;0.63;;;3.30;99.90;;;;;;5010557;28;20018;-80
2021/11/29 05:40:44;;;;;;;2.30;0.70;;;3.20;99.90;;;;;;4998425;28;20058;-81
2021/11/29 05:43:10;;;;;;;1.38;0.55;;;3.20;99.90;;;;;;5002964;28;20022;-81
2021/11/29 05:45:36;;;;;;;4.55;0.60;;;3.20;99.90;;;;;;4997853;28;20084;-80
2021/11/29 05:48:02;;;;;;;0.30;0.30;;;3.10;99.90;;;;;;4998371;28;20026;-81
2021/11/29 05:50:27;;;;;;;0.90;0.50;;;3.10;99.90;;;;;;4997903;28;20050;-80
2021/11/29 05:52:53;;;;;;;3.00;0.52;;;3.10;99.90;;;;;;5011769;28;20033;-80
2021/11/29 05:55:19;;;;;;;2.17;0.50;;;3.20;99.90;;;;;;5009471;28;20037;-80
2021/11/29 05:57:45;;;;;;;1.73;0.60;;;3.20;99.90;;;;;;5015941;28;20026;-79
2021/11/29 06:00:16;;;;;;;2.53;0.20;;;3.20;99.90;;;;;;4996573;28;20410;-80
2021/11/29 06:02:43;;;;;;;7.22;0.70;;;3.30;99.90;;;;;;5002382;28;20402;-81
2021/11/29 06:05:10;;;;;;;2.38;0.40;;;3.40;99.90;;;;;;5025339;28;20466;-80
2021/11/29 06:07:36;;;;;;;4.97;0.82;;;3.50;99.90;;;;;;5014257;28;20414;-80
2021/11/29 06:10:03;;;;;;;7.32;0.65;;;3.50;99.90;;;;;;4995351;28;20038;-81
2021/11/29 06:12:29;;;;;;;11.52;0.90;;;3.60;99.90;;;;;;5010936;28;20030;-81
2021/11/29 06:14:55;;;;;;;5.70;1.27;;;3.70;99.90;;;;;;5015909;28;20029;-80
2021/11/29 06:17:20;;;;;;;2.25;0.93;;;3.70;99.90;;;;;;5003257;28;20121;-81
2021/11/29 06:19:46;;;;;;;3.00;0.60;;;3.70;99.90;;;;;;4997541;28;20557;-80
2021/11/29 06:22:12;;;;;;;3.45;0.50;;;3.70;99.90;;;;;;5020516;28;20474;-81
2021/11/29 06:24:37;;;;;;;18.23;1.13;;;3.70;99.90;;;;;;5010976;28;20040;-81
2021/11/29 06:27:03;;;;;;;14.25;1.10;;;3.80;99.90;;;;;;5029116;28;20045;-82
2021/11/29 06:29:29;;;;;;;2.67;0.50;;;3.70;99.90;;;;;;5007100;28;20062;-82
2021/11/29 06:31:55;;;;;;;1.63;0.52;;;3.70;99.90;;;;;;5014174;28;20057;-81
2021/11/29 06:34:20;;;;;;;1.48;0.43;;;3.70;99.90;;;;;;5010902;28;20037;-80
2021/11/29 06:36:50;;;;;;;2.35;0.52;;;3.70;99.90;;;;;;4996949;28;20042;-80
2021/11/29 06:39:17;;;;;;;7.03;0.82;;;3.70;99.90;;;;;;5014513;28;20025;-80
2021/11/29 06:41:42;;;;;;;14.60;0.73;;;3.70;99.90;;;;;;5030288;28;20056;-80
2021/11/29 06:44:08;;;;;;;7.05;0.93;;;3.60;99.90;;;;;;5029108;28;20090;-80
2021/11/29 06:46:34;;;;;;;4.47;0.82;;;3.70;99.90;;;;;;5005718;28;20117;-80
2021/11/29 06:48:59;;;;;;;2.72;0.45;;;3.70;99.90;;;;;;5019878;28;20082;-79
2021/11/29 06:51:26;;;;;;;1.63;0.50;;;3.80;99.90;;;;;;5000274;28;20085;-81
2021/11/29 06:53:52;;;;;;;2.60;0.50;;;3.90;99.90;;;;;;5013886;28;20080;-81
2021/11/29 06:56:18;;;;;;;0.82;0.40;;;3.90;99.90;;;;;;5012158;28;20029;-81
2021/11/29 06:58:45;;;;;;;10.27;0.95;;;4.00;99.90;;;;;;4996497;28;20077;-82
2021/11/29 07:01:11;;;;;;;4.88;0.88;;;4.10;99.90;;;;;;5003417;28;20041;-81
2021/11/29 07:03:36;;;;;;;8.80;0.85;;;4.10;99.90;;;;;;5020212;28;20034;-80
2021/11/29 07:06:02;;;;;;;6.82;1.38;;;4.10;99.90;;;;;;4997809;28;20034;-80
2021/11/29 07:08:29;;;;;;;3.92;0.40;;;4.20;99.90;;;;;;4996131;28;20077;-82
2021/11/29 07:10:57;;;;;;;2.03;0.43;;;4.20;99.90;;;;;;5007363;28;20026;-81
2021/11/29 07:13:23;;;;;;;1.63;0.52;;;4.20;99.90;;;;;;5014091;28;20029;-82
2021/11/29 07:15:49;;;;;;;5.43;1.00;;;4.20;99.90;;;;;;5001775;28;20018;-81
2021/11/29 07:18:14;;;;;;;8.57;2.50;;;4.10;99.90;;;;;;4995421;28;20026;-82
2021/11/29 07:20:40;;;;;;;5.25;0.93;;;4.10;99.90;;;;;;4996260;28;20506;-81
2021/11/29 07:23:06;;;;;;;0.52;0.43;;;4.00;99.90;;;;;;5000701;28;20440;-81
2021/11/29 07:25:32;;;;;;;2.80;0.68;;;4.00;99.90;;;;;;5003025;28;20029;-81
2021/11/29 07:27:58;;;;;;;5.70;0.70;;;4.10;99.90;;;;;;5015851;28;20026;-81
2021/11/29 07:30:25;;;;;;;1.23;0.40;;;4.10;99.90;;;;;;5014060;28;20352;-79
2021/11/29 07:32:54;;;;;;;2.53;0.55;;;4.20;99.90;;;;;;4995036;28;20053;-80
2021/11/29 07:35:24;;;;;;;2.97;0.68;;;4.20;99.90;;;;;;5006426;28;20390;-79
2021/11/29 07:37:50;;;;;;;7.38;1.13;;;4.20;99.90;;;;;;5014977;28;20545;-80
2021/11/29 07:40:16;;;;;;;1.98;0.85;;;4.30;99.90;;;;;;5003308;28;20031;-81
2021/11/29 07:42:42;;;;;;;5.78;1.23;;;4.30;99.90;;;;;;5008408;28;20026;-82
2021/11/29 07:45:12;;;;;;;6.97;0.90;;;4.30;99.90;;;;;;5000907;28;20030;-81
2021/11/29 07:47:40;;;;;;;1.15;0.60;;;4.40;99.90;;;;;;5013823;28;20026;-81
2021/11/29 07:50:09;;;;;;;6.55;0.70;;;4.40;99.90;;;;;;5009828;28;20038;-82
2021/11/29 07:52:35;;;;;;;2.15;0.47;;;4.50;99.90;;;;;;5007557;28;20508;-82
2021/11/29 07:55:01;;;;;;;1.42;0.60;;;4.50;99.90;;;;;;4995695;28;20030;-82
2021/11/29 07:57:27;;;;;;;6.10;0.50;;;4.50;99.90;;;;;;5010149;28;20022;-83
2021/11/29 07:59:53;;;;;;;5.07;0.38;;;4.40;99.90;;;;;;4997644;28;20447;-81
2021/11/29 08:02:18;;;;;;;1.67;0.60;;;4.30;99.90;;;;;;4995235;28;20072;-80
2021/11/29 08:04:44;;;;;;;1.10;0.52;;;4.30;99.90;;;;;;5006079;28;20054;-81
2021/11/29 08:07:10;;;;;;;5.32;0.50;;;4.20;99.90;;;;;;5010811;28;20038;-82
2021/11/29 08:09:35;;;;;;;7.53;0.35;;;4.20;99.90;;;;;;5012887;28;20125;-81
2021/11/29 08:12:01;;;;;;;0.40;0.40;;;4.20;99.90;;;;;;5009468;28;20054;-81
2021/11/29 08:14:26;;;;;;;4.53;0.85;;;4.10;99.90;;;;;;5013284;28;20018;-81
2021/11/29 08:16:52;;;;;;;1.10;0.40;;;4.20;99.90;;;;;;5011776;28;20097;-81
2021/11/29 08:19:18;;;;;;;2.08;0.55;;;4.20;99.90;;;;;;4998005;28;20109;-80
2021/11/29 08:21:43;;;;;;;3.08;0.32;;;4.30;99.90;;;;;;5012792;28;20018;-79
2021/11/29 08:24:10;;;;;;;7.43;0.60;;;4.30;99.90;;;;;;5002733;28;20080;-80
2021/11/29 08:26:36;;;;;;;5.78;0.75;;;4.20;99.90;;;;;;4997076;28;20425;-80
2021/11/29 08:29:02;;;;;;;4.30;0.40;;;4.20;99.90;;;;;;4999425;28;20117;-80
2021/11/29 08:31:27;;;;;;;1.85;0.30;;;4.30;99.90;;;;;;5017144;28;20406;-79
2021/11/29 08:33:53;;;;;;;2.88;0.40;;;4.30;99.90;;;;;;5011277;28;20023;-78
2021/11/29 08:36:19;;;;;;;2.53;0.15;;;4.30;99.90;;;;;;5011387;28;20431;-78
2021/11/29 08:38:44;;;;;;;0.10;0.10;;;4.30;99.90;;;;;;5008060;28;20034;-80
2021/11/29 08:41:10;;;;;;;0.90;0.30;;;4.30;99.90;;;;;;5001836;28;20049;-79
2021/11/29 08:43:38;;;;;;;0.43;0.22;;;4.40;99.90;;;;;;5009893;28;20038;-78
2021/11/29 08:46:04;;;;;;;;;;;4.50;99.90;;;;;;5017691;28;20070;-79
2021/11/29 08:48:30;;;;;;;0.52;0.10;;;4.60;99.90;;;;;;5002260;28;20004;-79
2021/11/29 08:50:56;;;;;;;1.15;0.28;;;4.60;99.90;;;;;;5007510;28;20087;-78
2021/11/29 08:53:25;;;;;;;0.80;0.30;;;4.60;99.90;;;;;;5016108;28;20037;-80
2021/11/29 08:55:51;;;;;;;5.78;0.10;;;4.50;99.90;;;;;;5011906;28;20038;-80
2021/11/29 08:58:17;;;;;;;0.98;0.25;;;4.60;99.90;;;;;;4999825;28;20030;-80
2021/11/29 09:00:46;;;;;;;0.15;0.15;;;4.50;99.90;;;;;;5018536;28;20041;-79
2021/11/29 09:03:13;;;;;;;1.75;0.30;;;4.50;99.90;;;;;;5018077;28;20045;-81
2021/11/29 09:05:42;;;;;;;5.25;0.50;;;4.50;99.90;;;;;;5017122;28;20538;-80
2021/11/29 09:08:07;;;;;;;2.28;0.10;;;4.50;99.90;;;;;;5015286;28;20478;-80
2021/11/29 09:10:33;;;;;;;0.43;0.22;;;4.60;99.90;;;;;;5017289;28;20117;-80
2021/11/29 09:13:00;;;;;;;2.42;0.20;;;4.60;99.90;;;;;;5008640;28;20026;-80
2021/11/29 09:15:26;;;;;;;3.72;0.32;;;4.60;99.90;;;;;;5016851;28;20041;-81
2021/11/29 09:17:52;;;;;;;1.23;0.22;;;4.60;99.90;;;;;;5004725;28;20491;-80
2021/11/29 09:20:22;;;;;;;0.93;0.30;;;4.70;99.90;;;;;;5017673;28;20106;-80
2021/11/29 09:22:48;;;;;;;1.33;0.20;;;4.70;99.90;;;;;;5019119;28;20034;-80
2021/11/29 09:25:14;;;;;;;1.65;0.50;;;4.70;99.90;;;;;;5028064;28;20022;-79
2021/11/29 09:27:40;;;;;;;0.40;0.10;;;4.70;99.90;;;;;;5037882;28;20038;-80
2021/11/29 09:30:09;;;;;;;0.32;0.20;;;4.70;99.90;;;;;;5033897;28;20379;-79
2021/11/29 09:32:37;;;;;;;0.20;0.20;;;4.70;99.90;;;;;;5038409;28;20033;-78
2021/11/29 09:35:05;;;;;;;0.35;0.17;;;4.80;99.90;;;;;;5040030;28;20025;-80
2021/11/29 09:37:31;;;;;;;0.50;0.40;;;4.90;99.90;;;;;;5038064;28;20030;-80
2021/11/29 09:39:57;;;;;;;0.13;0.13;;;5.00;99.90;;;;;;5038450;28;20044;-78
2021/11/29 09:42:23;;;;;;;0.45;0.20;;;5.20;99.90;;;;;;5033084;28;20026;-78
2021/11/29 09:44:53;;;;;;;3.03;0.50;;;5.20;99.90;;;;;;5040718;28;20018;-78
2021/11/29 09:47:21;;;;;;;3.72;0.30;;;5.30;99.90;;;;;;5040590;28;20045;-77
2021/11/29 09:49:48;;;;;;;3.60;0.52;;;5.40;99.90;;;;;;5039302;28;20042;-78
2021/11/29 09:52:13;;;;;;;3.92;0.50;;;5.50;99.90;;;;;;5037899;28;20018;-79
2021/11/29 09:54:43;;;;;;;2.60;0.57;;;5.50;99.90;;;;;;5037401;28;20078;-78
2021/11/29 09:57:09;;;;;;;0.70;0.30;;;5.60;99.90;;;;;;5037083;28;20025;-80
2021/11/29 09:59:34;;;;;;;0.40;0.17;;;5.70;99.90;;;;;;5045680;28;20042;-77
2021/11/29 10:02:00;;;;;;;2.38;0.40;;;5.70;99.90;;;;;;5011730;28;20026;-79
2021/11/29 10:04:26;;;;;;;0.43;0.40;;;5.70;99.90;;;;;;5019616;28;20037;-80
2021/11/29 10:07:01;;;;;;;0.52;0.30;;;5.70;99.90;;;;;;5011134;28;20021;-78
2021/11/29 10:09:36;;;;;;;6.40;0.55;;;5.70;99.90;;;;;;5026797;28;20033;-79
2021/11/29 10:12:21;;;;;;;2.25;0.50;;;5.80;99.90;;;;;;5018615;28;20032;-80
2021/11/29 10:15:18;;;;;;;2.85;0.35;;;5.90;99.90;;;;;;5011606;28;20490;-79
2021/11/29 10:17:50;;;;;;;2.73;0.37;;;5.90;99.90;;;;;;5012618;28;20125;-80
2021/11/29 10:20:16;;;;;;;0.30;0.13;;;6.00;99.90;;;;;;5013784;28;20026;-80
2021/11/29 10:23:00;;;;;;;0.20;0.20;;;6.00;99.90;;;;;;5014890;28;20072;-78
2021/11/29 10:25:26;;;;;;;0.20;0.20;;;6.10;99.90;;;;;;5014380;28;20036;-80
2021/11/29 10:27:52;;;;;;;0.70;0.35;;;6.00;99.90;;;;;;5012819;28;20124;-79
2021/11/29 10:30:25;;;;;;;0.65;0.30;;;6.00;99.90;;;;;;4995376;28;20081;-80
2021/11/29 10:32:52;;;;;;;1.70;0.20;;;6.10;99.90;;;;;;5029891;28;20053;-80
2021/11/29 10:35:36;;;;;;;6.07;0.30;;;6.20;99.90;;;;;;5019196;28;20404;-80
2021/11/29 10:38:04;;;;;;;0.50;0.10;;;6.10;99.90;;;;;;5012108;28;20022;-79
2021/11/29 10:40:30;;;;;;;2.03;0.20;;;6.10;99.90;;;;;;5010953;28;20037;-79
2021/11/29 10:43:04;;;;;;;1.90;0.30;;;6.10;99.90;;;;;;5013878;28;20081;-79
2021/11/29 10:45:31;;;;;;;3.63;0.50;;;6.10;99.90;;;;;;5012764;28;20054;-80
2021/11/29 10:47:56;;;;;;;2.28;0.20;;;6.10;99.90;;;;;;5013833;28;20522;-78
2021/11/29 10:50:28;;;;;;;0.60;0.30;;;6.20;99.90;;;;;;5013673;28;20069;-79
2021/11/29 10:53:10;;;;;;;2.00;0.85;;;6.20;99.90;;;;;;5010089;28;20036;-79
2021/11/29 10:55:59;;;;;;;3.10;0.57;;;6.20;99.90;;;;;;5011967;28;20026;-79
2021/11/29 10:58:27;;;;;;;2.00;0.50;;;6.30;99.90;;;;;;5009420;28;20106;-79
2021/11/29 11:00:55;;;;;;;1.77;0.40;;;6.30;99.90;;;;;;5013232;28;20100;-80
2021/11/29 11:03:21;;;;;;;2.47;0.85;;;6.40;99.90;;;;;;5011670;28;20440;-79
2021/11/29 11:06:01;;;;;;;0.70;0.35;;;6.50;99.90;;;;;;5013273;28;20108;-79
2021/11/29 11:08:34;;;;;;;1.50;0.32;;;6.70;99.90;;;;;;5028684;28;20372;-79
2021/11/29 11:11:02;;;;;;;1.17;0.45;;;6.70;99.90;;;;;;5017696;28;20040;-81
2021/11/29 11:13:29;;;;;;;3.33;0.40;;;6.60;99.90;;;;;;5029145;28;20483;-81
2021/11/29 11:15:55;;;;;;;1.55;0.50;;;6.70;99.90;;;;;;5013211;28;20026;-80
2021/11/29 11:18:20;;;;;;;1.00;0.60;;;6.80;99.90;;;;;;5013039;28;20107;-80
2021/11/29 11:20:49;;;;;;;5.63;1.95;;;6.80;99.90;;;;;;5013912;28;20041;-80
2021/11/29 11:23:26;;;;;;;2.22;0.30;;;6.90;99.90;;;;;;5012558;28;20443;-79
2021/11/29 11:25:52;;;;;;;1.10;0.47;;;7.00;99.90;;;;;;5010399;28;20387;-80
2021/11/29 11:28:17;;;;;;;1.63;0.32;;;7.00;99.90;;;;;;5014324;28;20022;-81
2021/11/29 11:30:44;;;;;;;2.63;0.38;;;7.00;99.90;;;;;;5013421;28;20120;-81
2021/11/29 11:33:15;;;;;;;3.17;0.25;;;7.00;99.90;;;;;;5015891;28;20156;-81
2021/11/29 11:35:44;;;;;;;1.38;0.30;;;7.10;99.90;;;;;;5019663;28;20499;-81
2021/11/29 11:38:14;;;;;;;3.83;0.60;;;7.10;99.90;;;;;;5014115;28;20075;-80
2021/11/29 11:40:46;;;;;;;1.20;0.55;;;7.30;99.90;;;;;;5013194;28;20034;-80
2021/11/29 11:43:14;;;;;;;4.00;0.38;;;7.30;99.90;;;;;;5014001;28;20521;-80
2021/11/29 11:45:42;;;;;;;4.50;0.70;;;7.40;99.90;;;;;;5012401;28;20486;-81
2021/11/29 11:48:11;;;;;;;7.13;1.42;;;7.40;99.90;;;;;;5013349;28;20490;-80
2021/11/29 11:50:40;;;;;;;5.15;0.80;;;7.40;99.90;;;;;;5013643;28;20034;-80
2021/11/29 11:53:07;;;;;;;0.85;0.43;;;7.50;99.90;;;;;;5022522;28;20030;-80
2021/11/29 11:55:47;;;;;;;4.88;0.57;;;7.40;99.90;;;;;;5025920;28;20076;-80
2021/11/29 11:58:15;;;;;;;0.50;0.40;;;7.50;99.90;;;;;;5012764;28;20061;-80
2021/11/29 12:01:06;;;;;;;2.85;0.45;;;7.60;99.90;;;;;;5010532;28;20068;-80
2021/11/29 12:03:38;;;;;;;2.72;0.93;;;7.60;99.90;;;;;;5008022;28;20082;-79
2021/11/29 12:06:07;;;;;;;5.03;1.05;;;7.70;99.90;;;;;;5011767;28;20060;-80
2021/11/29 12:08:32;;;;;;;2.67;0.88;;;7.70;99.90;;;;;;4999974;28;20100;-80
2021/11/29 12:10:59;;;;;;;2.65;1.00;;;7.60;99.90;;;;;;5018590;28;20491;-80
2021/11/29 12:13:25;;;;;;;6.47;1.08;;;7.60;99.90;;;;;;5008387;28;20553;-80
2021/11/29 12:15:56;;;;;;;2.00;0.50;;;7.60;99.90;;;;;;5009518;28;20080;-78
2021/11/29 12:18:40;;;;;;;3.47;0.60;;;7.60;99.90;;;;;;5012579;28;20022;-82
2021/11/29 12:21:13;;;;;;;3.67;0.60;;;7.60;99.90;;;;;;5008230;28;20061;-79
2021/11/29 12:24:13;;;;;;;6.80;0.65;;;7.80;99.90;;;;;;5011339;28;20032;-80
2021/11/29 12:26:45;;;;;;;3.67;0.80;;;7.80;99.90;;;;;;5012253;28;20033;-80
2021/11/29 12:29:23;;;;;;;1.05;0.35;;;7.80;99.90;;;;;;5010735;28;20046;-81
2021/11/29 12:32:11;;;;;;;4.93;0.40;;;7.70;99.90;;;;;;5012856;28;20048;-80
2021/11/29 12:34:46;;;;;;;5.43;0.68;;;7.60;99.90;;;;;;5026500;28;20045;-80
2021/11/29 12:37:16;;;;;;;1.63;0.52;;;7.60;99.90;;;;;;5004885;28;20197;-80
2021/11/29 12:39:42;;;;;;;4.15;0.90;;;7.60;99.90;;;;;;5013027;28;20402;-78
2021/11/29 12:42:23;;;;;;;1.55;0.60;;;7.70;99.90;;;;;;5004458;28;20032;-81
2021/11/29 12:44:57;;;;;;;2.70;0.40;;;7.70;99.90;;;;;;5007386;28;20047;-77
2021/11/29 12:47:43;;;;;;;3.33;0.50;;;7.80;99.90;;;;;;5006486;28;20483;-77
2021/11/29 12:50:37;;;;;;;2.60;1.05;;;7.70;99.90;;;;;;5012400;28;20110;-80
2021/11/29 12:53:17;;;;;;;1.05;0.43;;;7.80;99.90;;;;;;5015142;28;20030;-79
2021/11/29 12:55:55;;;;;;;0.73;0.57;;;7.60;99.90;;;;;;5010345;28;20030;-84
2021/11/29 12:58:23;;;;;;;4.50;0.75;;;7.60;99.90;;;;;;5006056;28;20030;-78
2021/11/29 13:01:04;;;;;;;3.90;0.50;;;7.70;99.90;;;;;;5008305;28;20100;-81